sensor_id;sensor_type;location;lat;lon;timestamp;pressure;altitude;pressure_sealevel;temperature;humidity
73103;BME280;61294;65.988;29.172;2022-12-29T00:01:34;97383.44;;;-8.01;100.00
73103;BME280;61294;65.988;29.172;2022-12-29T00:04:00;97394.56;;;-8.01;100.00
73103;BME280;61294;65.988;29.172;2022-12-29T00:06:27;97356.97;;;-8.21;100.00
73103;BME280;61294;65.988;29.172;2022-12-29T00:08:53;97398.78;;;-8.01;100.00
73103;BME280;61294;65.988;29.172;2022-12-29T00:11:21;97343.75;;;-8.30;100.00
73103;BME280;61294;65.988;29.172;2022-12-29T00:13:47;97368.94;;;-8.20;100.00
73103;BME280;61294;65.988;29.172;2022-12-29T00:16:33;97364.84;;;-8.17;100.00
73103;BME280;61294;65.988;29.172;2022-12-29T00:18:59;97365.72;;;-8.16;100.00
73103;BME280;61294;65.988;29.172;2022-12-29T00:21:25;97373.41;;;-8.16;100.00
73103;BME280;61294;65.988;29.172;2022-12-29T00:24:12;97402.06;;;-8.04;100.00
73103;BME280;61294;65.988;29.172;2022-12-29T00:27:08;97414.13;;;-8.01;100.00
73103;BME280;61294;65.988;29.172;2022-12-29T00:29:53;97376.75;;;-8.17;100.00
73103;BME280;61294;65.988;29.172;2022-12-29T00:32:37;97413.25;;;-8.02;100.00
73103;BME280;61294;65.988;29.172;2022-12-29T00:35:26;97408.78;;;-8.06;100.00
73103;BME280;61294;65.988;29.172;2022-12-29T00:37:54;97424.28;;;-8.03;100.00
73103;BME280;61294;65.988;29.172;2022-12-29T00:40:40;97425.97;;;-8.03;100.00
73103;BME280;61294;65.988;29.172;2022-12-29T00:43:24;97394.47;;;-8.20;100.00
73103;BME280;61294;65.988;29.172;2022-12-29T00:46:08;97392.88;;;-8.18;100.00
73103;BME280;61294;65.988;29.172;2022-12-29T00:48:33;97395.34;;;-8.20;100.00
73103;BME280;61294;65.988;29.172;2022-12-29T00:51:17;97422.38;;;-8.07;100.00
73103;BME280;61294;65.988;29.172;2022-12-29T00:53:43;97397.75;;;-8.23;100.00
73103;BME280;61294;65.988;29.172;2022-12-29T00:56:09;97426.53;;;-8.09;100.00
73103;BME280;61294;65.988;29.172;2022-12-29T00:58:34;97372.38;;;-8.38;100.00
73103;BME280;61294;65.988;29.172;2022-12-29T01:01:08;97429.31;;;-8.04;100.00
73103;BME280;61294;65.988;29.172;2022-12-29T01:03:35;97407.41;;;-8.17;100.00
73103;BME280;61294;65.988;29.172;2022-12-29T01:06:08;97437.84;;;-8.04;100.00
73103;BME280;61294;65.988;29.172;2022-12-29T01:08:35;97396.25;;;-8.19;100.00
73103;BME280;61294;65.988;29.172;2022-12-29T01:11:04;97402.28;;;-8.17;100.00
73103;BME280;61294;65.988;29.172;2022-12-29T01:13:30;97405.44;;;-8.23;100.00
73103;BME280;61294;65.988;29.172;2022-12-29T01:15:56;97447.94;;;-8.07;100.00
73103;BME280;61294;65.988;29.172;2022-12-29T01:18:23;97406.16;;;-8.25;100.00
73103;BME280;61294;65.988;29.172;2022-12-29T01:20:49;97441.16;;;-8.06;100.00
73103;BME280;61294;65.988;29.172;2022-12-29T01:23:15;97409.88;;;-8.19;100.00
73103;BME280;61294;65.988;29.172;2022-12-29T01:25:41;97448.06;;;-8.04;100.00
73103;BME280;61294;65.988;29.172;2022-12-29T01:28:07;97423.16;;;-8.26;100.00
73103;BME280;61294;65.988;29.172;2022-12-29T01:30:36;97420.09;;;-8.19;100.00
73103;BME280;61294;65.988;29.172;2022-12-29T01:33:02;97424.28;;;-8.21;100.00
73103;BME280;61294;65.988;29.172;2022-12-29T01:35:28;97444.72;;;-8.03;100.00
73103;BME280;61294;65.988;29.172;2022-12-29T01:37:54;97466.28;;;-7.98;100.00
73103;BME280;61294;65.988;29.172;2022-12-29T01:40:20;97461.75;;;-8.03;100.00
73103;BME280;61294;65.988;29.172;2022-12-29T01:42:46;97443.25;;;-8.16;100.00
73103;BME280;61294;65.988;29.172;2022-12-29T01:45:17;97434.84;;;-8.13;100.00
73103;BME280;61294;65.988;29.172;2022-12-29T01:47:53;97475.72;;;-7.96;100.00
73103;BME280;61294;65.988;29.172;2022-12-29T01:53:05;97444.88;;;-8.18;100.00
73103;BME280;61294;65.988;29.172;2022-12-29T01:55:37;97454.44;;;-8.13;100.00
73103;BME280;61294;65.988;29.172;2022-12-29T01:58:05;97479.69;;;-8.02;100.00
73103;BME280;61294;65.988;29.172;2022-12-29T02:00:32;97438.84;;;-8.18;100.00
73103;BME280;61294;65.988;29.172;2022-12-29T02:02:58;97474.44;;;-8.05;100.00
73103;BME280;61294;65.988;29.172;2022-12-29T02:08:13;97476.34;;;-8.01;100.00
73103;BME280;61294;65.988;29.172;2022-12-29T02:10:40;97462.59;;;-8.21;100.00
73103;BME280;61294;65.988;29.172;2022-12-29T02:13:07;97485.94;;;-7.96;100.00
73103;BME280;61294;65.988;29.172;2022-12-29T02:15:56;97492.47;;;-8.02;100.00
73103;BME280;61294;65.988;29.172;2022-12-29T02:21:39;97503.81;;;-7.96;100.00
73103;BME280;61294;65.988;29.172;2022-12-29T02:27:52;97513.94;;;-7.98;100.00
73103;BME280;61294;65.988;29.172;2022-12-29T02:30:15;97494.75;;;-8.08;100.00
73103;BME280;61294;65.988;29.172;2022-12-29T02:33:04;97491.28;;;-8.08;100.00
73103;BME280;61294;65.988;29.172;2022-12-29T02:35:45;97532.66;;;-7.99;100.00
73103;BME280;61294;65.988;29.172;2022-12-29T02:38:31;97494.91;;;-8.21;100.00
73103;BME280;61294;65.988;29.172;2022-12-29T02:41:08;97541.19;;;-7.99;100.00
73103;BME280;61294;65.988;29.172;2022-12-29T02:46:28;97513.03;;;-8.17;100.00
73103;BME280;61294;65.988;29.172;2022-12-29T02:51:46;97494.19;;;-8.19;100.00
73103;BME280;61294;65.988;29.172;2022-12-29T02:54:19;97536.22;;;-7.95;100.00
73103;BME280;61294;65.988;29.172;2022-12-29T02:57:10;97546.59;;;-7.92;100.00
73103;BME280;61294;65.988;29.172;2022-12-29T02:59:36;97543.09;;;-7.94;100.00
73103;BME280;61294;65.988;29.172;2022-12-29T03:11:04;97514.22;;;-8.10;100.00
73103;BME280;61294;65.988;29.172;2022-12-29T03:14:00;97538.50;;;-8.02;100.00
73103;BME280;61294;65.988;29.172;2022-12-29T03:16:47;97554.13;;;-7.95;100.00
73103;BME280;61294;65.988;29.172;2022-12-29T03:21:59;97567.88;;;-7.93;100.00
73103;BME280;61294;65.988;29.172;2022-12-29T03:24:49;97580.78;;;-7.90;100.00
73103;BME280;61294;65.988;29.172;2022-12-29T03:27:23;97547.75;;;-8.04;100.00
73103;BME280;61294;65.988;29.172;2022-12-29T03:29:55;97551.03;;;-8.06;100.00
73103;BME280;61294;65.988;29.172;2022-12-29T03:32:25;97585.13;;;-7.89;100.00
73103;BME280;61294;65.988;29.172;2022-12-29T03:34:53;97575.69;;;-7.90;100.00
73103;BME280;61294;65.988;29.172;2022-12-29T03:37:27;97581.75;;;-7.88;100.00
73103;BME280;61294;65.988;29.172;2022-12-29T03:39:56;97547.44;;;-8.10;100.00
73103;BME280;61294;65.988;29.172;2022-12-29T03:42:25;97552.06;;;-8.03;100.00
73103;BME280;61294;65.988;29.172;2022-12-29T03:44:55;97558.06;;;-8.02;100.00
73103;BME280;61294;65.988;29.172;2022-12-29T03:47:22;97581.44;;;-7.94;100.00
73103;BME280;61294;65.988;29.172;2022-12-29T03:49:49;97595.97;;;-7.93;100.00
73103;BME280;61294;65.988;29.172;2022-12-29T03:52:15;97588.25;;;-7.95;100.00
73103;BME280;61294;65.988;29.172;2022-12-29T03:54:41;97556.72;;;-8.12;100.00
73103;BME280;61294;65.988;29.172;2022-12-29T03:57:08;97554.25;;;-8.10;100.00
73103;BME280;61294;65.988;29.172;2022-12-29T03:59:34;97565.47;;;-8.07;100.00
73103;BME280;61294;65.988;29.172;2022-12-29T04:02:00;97593.44;;;-7.93;100.00
73103;BME280;61294;65.988;29.172;2022-12-29T04:04:25;97556.72;;;-8.12;100.00
73103;BME280;61294;65.988;29.172;2022-12-29T04:06:51;97551.69;;;-8.10;100.00
73103;BME280;61294;65.988;29.172;2022-12-29T04:09:17;97561.41;;;-8.03;100.00
73103;BME280;61294;65.988;29.172;2022-12-29T04:11:43;97575.38;;;-7.96;100.00
73103;BME280;61294;65.988;29.172;2022-12-29T04:14:09;97590.16;;;-7.91;100.00
73103;BME280;61294;65.988;29.172;2022-12-29T04:16:34;97551.63;;;-8.12;100.00
73103;BME280;61294;65.988;29.172;2022-12-29T04:19:05;97560.50;;;-8.04;100.00
73103;BME280;61294;65.988;29.172;2022-12-29T04:21:31;97586.06;;;-7.87;100.00
73103;BME280;61294;65.988;29.172;2022-12-29T04:23:57;97580.09;;;-7.88;100.00
73103;BME280;61294;65.988;29.172;2022-12-29T04:26:23;97545.75;;;-8.09;100.00
73103;BME280;61294;65.988;29.172;2022-12-29T04:28:48;97585.13;;;-7.89;100.00
73103;BME280;61294;65.988;29.172;2022-12-29T04:31:14;97594.44;;;-7.90;100.00
73103;BME280;61294;65.988;29.172;2022-12-29T04:33:40;97572.72;;;-7.98;100.00
73103;BME280;61294;65.988;29.172;2022-12-29T04:36:06;97565.63;;;-8.04;100.00
73103;BME280;61294;65.988;29.172;2022-12-29T04:38:31;97558.78;;;-8.05;100.00
73103;BME280;61294;65.988;29.172;2022-12-29T04:41:00;97599.63;;;-7.88;100.00
73103;BME280;61294;65.988;29.172;2022-12-29T04:43:26;97595.34;;;-7.89;100.00
73103;BME280;61294;65.988;29.172;2022-12-29T04:45:53;97565.31;;;-8.10;100.00
73103;BME280;61294;65.988;29.172;2022-12-29T04:48:19;97534.72;;;-8.26;100.00
73103;BME280;61294;65.988;29.172;2022-12-29T04:50:47;97574.91;;;-8.06;100.00
73103;BME280;61294;65.988;29.172;2022-12-29T04:53:14;97550.34;;;-8.20;100.00
73103;BME280;61294;65.988;29.172;2022-12-29T04:55:39;97620.09;;;-7.88;100.00
73103;BME280;61294;65.988;29.172;2022-12-29T04:58:05;97555.44;;;-8.20;100.00
73103;BME280;61294;65.988;29.172;2022-12-29T05:00:31;97581.06;;;-8.02;100.00
73103;BME280;61294;65.988;29.172;2022-12-29T05:02:57;97577.47;;;-8.06;100.00
73103;BME280;61294;65.988;29.172;2022-12-29T05:05:23;97618.44;;;-7.88;100.00
73103;BME280;61294;65.988;29.172;2022-12-29T05:07:48;97576.53;;;-8.08;100.00
73103;BME280;61294;65.988;29.172;2022-12-29T05:10:14;97588.25;;;-8.11;100.00
73103;BME280;61294;65.988;29.172;2022-12-29T05:12:40;97620.34;;;-7.84;100.00
73103;BME280;61294;65.988;29.172;2022-12-29T05:15:07;97592.16;;;-8.02;100.00
73103;BME280;61294;65.988;29.172;2022-12-29T05:17:33;97592.94;;;-8.03;100.00
73103;BME280;61294;65.988;29.172;2022-12-29T05:19:59;97597.13;;;-8.05;100.00
73103;BME280;61294;65.988;29.172;2022-12-29T05:22:25;97618.34;;;-7.89;100.00
73103;BME280;61294;65.988;29.172;2022-12-29T05:24:51;97597.13;;;-8.05;100.00
73103;BME280;61294;65.988;29.172;2022-12-29T05:27:16;97629.50;;;-7.87;100.00
73103;BME280;61294;65.988;29.172;2022-12-29T05:29:42;97632.16;;;-7.86;100.00
73103;BME280;61294;65.988;29.172;2022-12-29T05:32:08;97605.25;;;-7.95;100.00
73103;BME280;61294;65.988;29.172;2022-12-29T05:34:34;97636.53;;;-7.83;100.00
73103;BME280;61294;65.988;29.172;2022-12-29T05:37:00;97595.72;;;-7.98;100.00
73103;BME280;61294;65.988;29.172;2022-12-29T05:39:28;97596.78;;;-7.94;100.00
73103;BME280;61294;65.988;29.172;2022-12-29T05:41:54;97623.84;;;-7.82;100.00
73103;BME280;61294;65.988;29.172;2022-12-29T05:44:20;97589.69;;;-8.00;100.00
73103;BME280;61294;65.988;29.172;2022-12-29T05:46:46;97593.09;;;-8.00;100.00
73103;BME280;61294;65.988;29.172;2022-12-29T05:49:11;97590.63;;;-7.98;100.00
73103;BME280;61294;65.988;29.172;2022-12-29T05:51:37;97617.53;;;-7.88;100.00
73103;BME280;61294;65.988;29.172;2022-12-29T05:54:03;97634.94;;;-7.81;100.00
73103;BME280;61294;65.988;29.172;2022-12-29T05:56:29;97613.94;;;-7.92;100.00
73103;BME280;61294;65.988;29.172;2022-12-29T05:58:55;97652.19;;;-7.77;100.00
73103;BME280;61294;65.988;29.172;2022-12-29T06:01:21;97619.06;;;-7.92;100.00
73103;BME280;61294;65.988;29.172;2022-12-29T06:03:46;97653.94;;;-7.76;100.00
73103;BME280;61294;65.988;29.172;2022-12-29T06:06:12;97629.38;;;-7.90;100.00
73103;BME280;61294;65.988;29.172;2022-12-29T06:08:38;97659.94;;;-7.75;100.00
73103;BME280;61294;65.988;29.172;2022-12-29T06:11:04;97624.03;;;-7.95;100.00
73103;BME280;61294;65.988;29.172;2022-12-29T06:13:30;97671.84;;;-7.76;100.00
73103;BME280;61294;65.988;29.172;2022-12-29T06:15:55;97664.91;;;-7.78;100.00
73103;BME280;61294;65.988;29.172;2022-12-29T06:18:21;97626.25;;;-8.01;100.00
73103;BME280;61294;65.988;29.172;2022-12-29T06:20:47;97651.50;;;-7.91;100.00
73103;BME280;61294;65.988;29.172;2022-12-29T06:23:13;97669.22;;;-7.77;100.00
73103;BME280;61294;65.988;29.172;2022-12-29T06:25:39;97684.78;;;-7.73;100.00
73103;BME280;61294;65.988;29.172;2022-12-29T06:28:05;97692.69;;;-7.68;100.00
73103;BME280;61294;65.988;29.172;2022-12-29T06:30:32;97644.06;;;-7.86;100.00
73103;BME280;61294;65.988;29.172;2022-12-29T06:32:58;97690.19;;;-7.67;100.00
73103;BME280;61294;65.988;29.172;2022-12-29T06:35:24;97649.97;;;-7.87;100.00
73103;BME280;61294;65.988;29.172;2022-12-29T06:37:51;97688.63;;;-7.65;100.00
73103;BME280;61294;65.988;29.172;2022-12-29T06:40:16;97708.22;;;-7.65;100.00
73103;BME280;61294;65.988;29.172;2022-12-29T06:42:42;97687.03;;;-7.79;100.00
73103;BME280;61294;65.988;29.172;2022-12-29T06:45:08;97658.59;;;-7.85;100.00
73103;BME280;61294;65.988;29.172;2022-12-29T06:47:35;97698.53;;;-7.71;100.00
73103;BME280;61294;65.988;29.172;2022-12-29T06:50:02;97709.56;;;-7.72;100.00
73103;BME280;61294;65.988;29.172;2022-12-29T06:52:28;97679.84;;;-7.86;100.00
73103;BME280;61294;65.988;29.172;2022-12-29T06:54:54;97725.22;;;-7.66;100.00
73103;BME280;61294;65.988;29.172;2022-12-29T06:57:21;97708.44;;;-7.77;100.00
73103;BME280;61294;65.988;29.172;2022-12-29T06:59:46;97693.66;;;-7.83;100.00
73103;BME280;61294;65.988;29.172;2022-12-29T07:02:12;97691.94;;;-7.84;100.00
73103;BME280;61294;65.988;29.172;2022-12-29T07:04:43;97737.13;;;-7.66;100.00
73103;BME280;61294;65.988;29.172;2022-12-29T07:07:09;97714.03;;;-7.84;100.00
73103;BME280;61294;65.988;29.172;2022-12-29T07:09:35;97714.38;;;-7.78;100.00
73103;BME280;61294;65.988;29.172;2022-12-29T07:12:00;97695.19;;;-7.86;100.00
73103;BME280;61294;65.988;29.172;2022-12-29T07:14:26;97711.47;;;-7.84;100.00
73103;BME280;61294;65.988;29.172;2022-12-29T07:16:52;97704.16;;;-7.78;100.00
73103;BME280;61294;65.988;29.172;2022-12-29T07:19:18;97693.91;;;-7.94;100.00
73103;BME280;61294;65.988;29.172;2022-12-29T07:21:44;97729.88;;;-7.75;100.00
73103;BME280;61294;65.988;29.172;2022-12-29T07:24:09;97715.72;;;-7.85;100.00
73103;BME280;61294;65.988;29.172;2022-12-29T07:26:35;97685.84;;;-8.02;100.00
73103;BME280;61294;65.988;29.172;2022-12-29T07:29:04;97752.63;;;-7.63;100.00
73103;BME280;61294;65.988;29.172;2022-12-29T07:31:30;97685.19;;;-7.98;100.00
73103;BME280;61294;65.988;29.172;2022-12-29T07:33:56;97740.91;;;-7.59;100.00
73103;BME280;61294;65.988;29.172;2022-12-29T07:36:22;97685.38;;;-7.95;100.00
73103;BME280;61294;65.988;29.172;2022-12-29T07:38:48;97769.97;;;-7.57;100.00
73103;BME280;61294;65.988;29.172;2022-12-29T07:41:13;97719.56;;;-7.76;100.00
73103;BME280;61294;65.988;29.172;2022-12-29T07:43:39;97708.78;;;-7.71;100.00
73103;BME280;61294;65.988;29.172;2022-12-29T07:46:05;97724.97;;;-7.70;100.00
73103;BME280;61294;65.988;29.172;2022-12-29T07:48:31;97745.34;;;-7.55;100.00
73103;BME280;61294;65.988;29.172;2022-12-29T07:50:58;97745.53;;;-7.52;100.00
73103;BME280;61294;65.988;29.172;2022-12-29T07:53:24;97706.38;;;-7.68;100.00
73103;BME280;61294;65.988;29.172;2022-12-29T07:55:50;97721.94;;;-7.63;100.00
73103;BME280;61294;65.988;29.172;2022-12-29T07:58:16;97714.41;;;-7.60;100.00
73103;BME280;61294;65.988;29.172;2022-12-29T08:00:42;97717.06;;;-7.58;100.00
73103;BME280;61294;65.988;29.172;2022-12-29T08:03:08;97718.75;;;-7.59;100.00
73103;BME280;61294;65.988;29.172;2022-12-29T08:05:34;97714.34;;;-7.61;100.00
73103;BME280;61294;65.988;29.172;2022-12-29T08:08:00;97715.06;;;-7.64;100.00
73103;BME280;61294;65.988;29.172;2022-12-29T08:10:25;97717.78;;;-7.61;100.00
73103;BME280;61294;65.988;29.172;2022-12-29T08:12:51;97721.22;;;-7.60;100.00
73103;BME280;61294;65.988;29.172;2022-12-29T08:15:17;97706.53;;;-7.65;100.00
73103;BME280;61294;65.988;29.172;2022-12-29T08:17:43;97744.00;;;-7.49;100.00
73103;BME280;61294;65.988;29.172;2022-12-29T08:20:09;97743.28;;;-7.46;100.00
73103;BME280;61294;65.988;29.172;2022-12-29T08:22:39;97744.13;;;-7.46;100.00
73103;BME280;61294;65.988;29.172;2022-12-29T08:25:05;97757.91;;;-7.43;100.00
73103;BME280;61294;65.988;29.172;2022-12-29T08:27:31;97753.66;;;-7.43;100.00
73103;BME280;61294;65.988;29.172;2022-12-29T08:29:57;97730.66;;;-7.59;100.00
73103;BME280;61294;65.988;29.172;2022-12-29T08:32:25;97762.19;;;-7.42;100.00
73103;BME280;61294;65.988;29.172;2022-12-29T08:34:51;97737.03;;;-7.51;100.00
73103;BME280;61294;65.988;29.172;2022-12-29T08:37:17;97757.06;;;-7.42;100.00
73103;BME280;61294;65.988;29.172;2022-12-29T08:39:43;97746.31;;;-7.53;100.00
73103;BME280;61294;65.988;29.172;2022-12-29T08:42:09;97762.31;;;-7.41;100.00
73103;BME280;61294;65.988;29.172;2022-12-29T08:44:35;97750.31;;;-7.58;100.00
73103;BME280;61294;65.988;29.172;2022-12-29T08:47:01;97751.75;;;-7.64;100.00
73103;BME280;61294;65.988;29.172;2022-12-29T08:49:27;97743.91;;;-7.67;100.00
73103;BME280;61294;65.988;29.172;2022-12-29T08:51:52;97745.53;;;-7.69;100.00
73103;BME280;61294;65.988;29.172;2022-12-29T08:54:19;97783.41;;;-7.45;100.00
73103;BME280;61294;65.988;29.172;2022-12-29T08:56:46;97768.13;;;-7.60;100.00
73103;BME280;61294;65.988;29.172;2022-12-29T08:59:13;97759.44;;;-7.64;100.00
73103;BME280;61294;65.988;29.172;2022-12-29T09:01:39;97791.47;;;-7.37;100.00
73103;BME280;61294;65.988;29.172;2022-12-29T09:04:06;97781.22;;;-7.37;100.00
73103;BME280;61294;65.988;29.172;2022-12-29T09:06:32;97794.09;;;-7.36;100.00
73103;BME280;61294;65.988;29.172;2022-12-29T09:08:58;97796.66;;;-7.36;100.00
73103;BME280;61294;65.988;29.172;2022-12-29T09:11:25;97772.53;;;-7.57;100.00
73103;BME280;61294;65.988;29.172;2022-12-29T09:13:52;97777.56;;;-7.59;100.00
73103;BME280;61294;65.988;29.172;2022-12-29T09:16:20;97815.75;;;-7.46;100.00
73103;BME280;61294;65.988;29.172;2022-12-29T09:18:46;97816.91;;;-7.40;100.00
73103;BME280;61294;65.988;29.172;2022-12-29T09:21:12;97788.19;;;-7.51;100.00
73103;BME280;61294;65.988;29.172;2022-12-29T09:23:39;97791.78;;;-7.64;100.00
73103;BME280;61294;65.988;29.172;2022-12-29T09:26:05;97840.09;;;-7.37;100.00
73103;BME280;61294;65.988;29.172;2022-12-29T09:28:31;97804.34;;;-7.52;100.00
73103;BME280;61294;65.988;29.172;2022-12-29T09:31:05;97845.13;;;-7.39;100.00
73103;BME280;61294;65.988;29.172;2022-12-29T09:33:38;97845.75;;;-7.43;100.00
73103;BME280;61294;65.988;29.172;2022-12-29T09:36:04;97850.88;;;-7.43;100.00
73103;BME280;61294;65.988;29.172;2022-12-29T09:38:30;97849.94;;;-7.45;100.00
73103;BME280;61294;65.988;29.172;2022-12-29T09:41:01;97822.25;;;-7.52;100.00
73103;BME280;61294;65.988;29.172;2022-12-29T09:44:10;97848.63;;;-7.37;100.00
73103;BME280;61294;65.988;29.172;2022-12-29T09:46:41;97822.41;;;-7.49;100.00
73103;BME280;61294;65.988;29.172;2022-12-29T09:49:35;97831.03;;;-7.47;100.00
73103;BME280;61294;65.988;29.172;2022-12-29T09:52:35;97860.22;;;-7.27;100.00
73103;BME280;61294;65.988;29.172;2022-12-29T09:55:11;97850.53;;;-7.33;100.00
73103;BME280;61294;65.988;29.172;2022-12-29T09:57:59;97851.28;;;-7.35;100.00
73103;BME280;61294;65.988;29.172;2022-12-29T10:00:36;97859.84;;;-7.35;100.00
73103;BME280;61294;65.988;29.172;2022-12-29T10:03:13;97852.25;;;-7.33;100.00
73103;BME280;61294;65.988;29.172;2022-12-29T10:05:49;97849.59;;;-7.35;100.00
73103;BME280;61294;65.988;29.172;2022-12-29T10:11:29;97860.00;;;-7.32;100.00
73103;BME280;61294;65.988;29.172;2022-12-29T10:17:29;97848.47;;;-7.40;100.00
73103;BME280;61294;65.988;29.172;2022-12-29T10:25:26;97832.31;;;-7.55;100.00
73103;BME280;61294;65.988;29.172;2022-12-29T10:27:54;97870.00;;;-7.36;100.00
73103;BME280;61294;65.988;29.172;2022-12-29T10:30:22;97838.41;;;-7.53;100.00
73103;BME280;61294;65.988;29.172;2022-12-29T10:32:52;97824.41;;;-7.60;100.00
73103;BME280;61294;65.988;29.172;2022-12-29T10:35:23;97860.94;;;-7.46;100.00
73103;BME280;61294;65.988;29.172;2022-12-29T10:40:26;97863.59;;;-7.44;100.00
73103;BME280;61294;65.988;29.172;2022-12-29T10:42:56;97853.34;;;-7.44;100.00
73103;BME280;61294;65.988;29.172;2022-12-29T10:45:28;97855.75;;;-7.48;100.00
73103;BME280;61294;65.988;29.172;2022-12-29T10:48:09;97853.97;;;-7.49;100.00
73103;BME280;61294;65.988;29.172;2022-12-29T10:50:37;97827.97;;;-7.73;100.00
73103;BME280;61294;65.988;29.172;2022-12-29T10:53:15;97835.88;;;-7.68;100.00
73103;BME280;61294;65.988;29.172;2022-12-29T10:55:44;97862.22;;;-7.54;100.00
73103;BME280;61294;65.988;29.172;2022-12-29T10:58:13;97861.50;;;-7.52;100.00
73103;BME280;61294;65.988;29.172;2022-12-29T11:00:40;97843.69;;;-7.50;100.00
73103;BME280;61294;65.988;29.172;2022-12-29T11:03:29;97829.66;;;-7.57;100.00
73103;BME280;61294;65.988;29.172;2022-12-29T11:08:37;97814.72;;;-7.66;100.00
73103;BME280;61294;65.988;29.172;2022-12-29T11:11:06;97787.31;;;-7.85;100.00
73103;BME280;61294;65.988;29.172;2022-12-29T11:13:48;97837.78;;;-7.49;100.00
73103;BME280;61294;65.988;29.172;2022-12-29T11:16:14;97788.25;;;-7.83;100.00
73103;BME280;61294;65.988;29.172;2022-12-29T11:18:40;97803.94;;;-7.76;100.00
73103;BME280;61294;65.988;29.172;2022-12-29T11:21:33;97837.75;;;-7.66;100.00
73103;BME280;61294;65.988;29.172;2022-12-29T11:24:03;97847.19;;;-7.65;100.00
73103;BME280;61294;65.988;29.172;2022-12-29T11:26:31;97840.22;;;-7.67;100.00
73103;BME280;61294;65.988;29.172;2022-12-29T11:31:47;97839.28;;;-7.69;100.00
73103;BME280;61294;65.988;29.172;2022-12-29T11:34:20;97848.75;;;-7.67;100.00
73103;BME280;61294;65.988;29.172;2022-12-29T11:36:47;97849.75;;;-7.65;100.00
73103;BME280;61294;65.988;29.172;2022-12-29T11:39:36;97848.69;;;-7.68;100.00
73103;BME280;61294;65.988;29.172;2022-12-29T11:42:04;97855.56;;;-7.67;100.00
73103;BME280;61294;65.988;29.172;2022-12-29T11:44:43;97807.06;;;-7.82;100.00
73103;BME280;61294;65.988;29.172;2022-12-29T11:47:23;97797.78;;;-7.80;100.00
73103;BME280;61294;65.988;29.172;2022-12-29T11:49:54;97797.38;;;-7.88;100.00
73103;BME280;61294;65.988;29.172;2022-12-29T11:52:25;97827.28;;;-7.70;100.00
73103;BME280;61294;65.988;29.172;2022-12-29T11:54:53;97841.75;;;-7.71;100.00
73103;BME280;61294;65.988;29.172;2022-12-29T11:57:22;97803.34;;;-7.87;100.00
73103;BME280;61294;65.988;29.172;2022-12-29T11:59:51;97837.19;;;-7.76;100.00
73103;BME280;61294;65.988;29.172;2022-12-29T12:04:49;97825.34;;;-7.91;100.00
73103;BME280;61294;65.988;29.172;2022-12-29T12:07:24;97849.88;;;-7.78;100.00
73103;BME280;61294;65.988;29.172;2022-12-29T12:09:58;97829.00;;;-8.02;100.00
73103;BME280;61294;65.988;29.172;2022-12-29T12:12:34;97863.63;;;-7.76;100.00
73103;BME280;61294;65.988;29.172;2022-12-29T12:15:02;97867.13;;;-7.74;100.00
73103;BME280;61294;65.988;29.172;2022-12-29T12:17:56;97868.75;;;-7.76;100.00
73103;BME280;61294;65.988;29.172;2022-12-29T12:20:48;97836.00;;;-7.98;100.00
73103;BME280;61294;65.988;29.172;2022-12-29T12:23:36;97822.28;;;-8.00;100.00
73103;BME280;61294;65.988;29.172;2022-12-29T12:26:14;97850.53;;;-7.82;100.00
73103;BME280;61294;65.988;29.172;2022-12-29T12:28:54;97846.66;;;-7.90;100.00
73103;BME280;61294;65.988;29.172;2022-12-29T12:34:19;97847.44;;;-7.91;100.00
73103;BME280;61294;65.988;29.172;2022-12-29T12:45:32;97854.19;;;-8.08;100.00
73103;BME280;61294;65.988;29.172;2022-12-29T12:56:51;97894.38;;;-8.06;100.00
73103;BME280;61294;65.988;29.172;2022-12-29T13:13:28;97884.22;;;-8.04;100.00
73103;BME280;61294;65.988;29.172;2022-12-29T13:16:10;97898.34;;;-8.11;100.00
73103;BME280;61294;65.988;29.172;2022-12-29T13:19:04;97890.50;;;-8.14;100.00
73103;BME280;61294;65.988;29.172;2022-12-29T13:21:57;97908.13;;;-8.19;100.00
73103;BME280;61294;65.988;29.172;2022-12-29T13:27:32;97912.19;;;-8.22;100.00
73103;BME280;61294;65.988;29.172;2022-12-29T13:33:23;97910.53;;;-8.22;100.00
73103;BME280;61294;65.988;29.172;2022-12-29T13:38:54;97915.81;;;-8.19;100.00
73103;BME280;61294;65.988;29.172;2022-12-29T13:41:38;97907.81;;;-8.25;100.00
73103;BME280;61294;65.988;29.172;2022-12-29T13:44:05;97915.38;;;-8.26;100.00
73103;BME280;61294;65.988;29.172;2022-12-29T13:46:40;97877.63;;;-8.47;100.00
73103;BME280;61294;65.988;29.172;2022-12-29T13:49:21;97905.06;;;-8.28;100.00
73103;BME280;61294;65.988;29.172;2022-12-29T13:51:53;97866.06;;;-8.40;100.00
73103;BME280;61294;65.988;29.172;2022-12-29T13:54:27;97862.72;;;-8.39;100.00
73103;BME280;61294;65.988;29.172;2022-12-29T13:57:06;97847.97;;;-8.45;100.00
73103;BME280;61294;65.988;29.172;2022-12-29T13:59:42;97883.13;;;-8.24;100.00
73103;BME280;61294;65.988;29.172;2022-12-29T14:05:02;97890.47;;;-8.30;100.00
73103;BME280;61294;65.988;29.172;2022-12-29T14:07:36;97838.63;;;-8.44;100.00
73103;BME280;61294;65.988;29.172;2022-12-29T14:10:04;97886.47;;;-8.25;100.00
73103;BME280;61294;65.988;29.172;2022-12-29T14:12:37;97854.78;;;-8.29;100.00
73103;BME280;61294;65.988;29.172;2022-12-29T14:15:05;97868.94;;;-8.34;100.00
73103;BME280;61294;65.988;29.172;2022-12-29T14:17:33;97822.94;;;-8.65;100.00
73103;BME280;61294;65.988;29.172;2022-12-29T14:19:59;97878.47;;;-8.32;100.00
73103;BME280;61294;65.988;29.172;2022-12-29T14:22:27;97836.69;;;-8.48;100.00
73103;BME280;61294;65.988;29.172;2022-12-29T14:24:53;97842.66;;;-8.48;100.00
73103;BME280;61294;65.988;29.172;2022-12-29T14:29:46;97859.50;;;-8.35;100.00
73103;BME280;61294;65.988;29.172;2022-12-29T14:37:39;97798.94;;;-8.69;100.00
73103;BME280;61294;65.988;29.172;2022-12-29T14:40:23;97853.53;;;-8.36;100.00
73103;BME280;61294;65.988;29.172;2022-12-29T14:42:55;97862.88;;;-8.36;100.00